Aviation Digital Data Service (ADDS)

Output produced by METARs form (1541 UTC 25 September 2016)
found at http://aviationweather.gov/adds/metars/
 
KILG 251122Z 2512/2612 35008KT P6SM SKC 
     FM252300 VRB03KT P6SM SKC